Time;durP1;ratioP1;P1;durP2;ratioP2;P2;SDS_P1;SDS_P2;PMS_P1;PMS_P2;Temp;Humidity;BMP_temperature;BMP_pressure;BME280_temperature;BME280_humidity;BME280_pressure;Samples;Min_cycle;Max_cycle;Signal;HPM_P1;HPM_P2
2023/10/17 00:00:57;;;;;;;;;4.25;2.00;;;;;9.51;52.58;100816.09;5102129;27;45691;-68
2023/10/17 00:03:24;;;;;;;;;1.75;1.75;;;;;9.42;52.83;100811.91;5118056;27;46919;-68
2023/10/17 00:05:51;;;;;;;;;3.00;3.00;;;;;9.45;53.12;100818.81;5120045;27;45882;-67
2023/10/17 00:08:17;;;;;;;;;2.00;2.00;;;;;9.39;53.16;100805.88;5102604;27;45574;-68
2023/10/17 00:10:45;;;;;;;;;3.50;2.00;;;;;9.45;52.93;100824.03;5120109;27;45550;-67
2023/10/17 00:13:23;;;;;;;;;2.75;2.25;;;;;9.27;53.13;100789.56;5107382;27;45560;-69
2023/10/17 00:15:50;;;;;;;;;4.25;3.00;;;;;9.35;53.23;100809.44;5115513;27;45806;-68
2023/10/17 00:18:17;;;;;;;;;5.00;2.00;;;;;9.31;53.42;100806.03;5106182;27;45444;-68
2023/10/17 00:20:44;;;;;;;;;3.75;2.25;;;;;9.35;53.40;100815.53;5109518;27;45484;-68
2023/10/17 00:23:20;;;;;;;;;2.00;2.00;;;;;9.26;53.20;100800.91;5103244;27;47786;-67
2023/10/17 00:25:45;;;;;;;;;1.00;1.00;;;;;9.26;53.57;100813.97;5119644;27;45863;-68
2023/10/17 00:28:13;;;;;;;;;3.50;2.00;;;;;9.27;53.32;100809.59;5111038;27;45467;-67
2023/10/17 00:30:38;;;;;;;;;4.00;2.25;;;;;9.24;53.63;100812.28;5114342;27;45503;-68
2023/10/17 00:33:09;;;;;;;;;4.00;2.00;;;;;9.17;53.41;100803.72;5119656;27;46348;-67
2023/10/17 00:35:39;;;;;;;;;1.25;1.25;;;;;9.20;53.73;100800.19;5099265;27;45359;-68
2023/10/17 00:38:07;;;;;;;;;3.75;2.00;;;;;9.19;53.47;100786.28;5099172;27;45382;-68
2023/10/17 00:40:49;;;;;;;;;3.75;2.00;;;;;9.18;53.78;100781.94;5133428;27;45397;-67
2023/10/17 00:43:15;;;;;;;;;2.00;2.00;;;;;9.16;53.45;100777.66;5102923;27;47292;-67
2023/10/17 00:45:41;;;;;;;;;3.25;2.00;;;;;9.17;53.69;100782.84;5100983;27;45844;-67
2023/10/17 00:48:17;;;;;;;;;5.25;1.75;;;;;9.16;54.01;100785.47;5101649;27;45515;-68
2023/10/17 00:50:46;;;;;;;;;2.25;2.00;;;;;9.11;53.77;100785.56;5108093;27;45303;-67
2023/10/17 00:53:11;;;;;;;;;7.25;4.50;;;;;9.10;53.90;100771.66;5101432;27;48046;-67
2023/10/17 00:55:38;;;;;;;;;4.75;3.25;;;;;9.04;53.95;100763.94;5109337;27;45344;-68
2023/10/17 00:58:06;;;;;;;;;2.00;2.00;;;;;9.02;54.09;100760.50;5095069;27;66451;-68
2023/10/17 01:00:47;;;;;;;;;2.50;2.00;;;;;8.96;54.30;100746.69;5118317;27;45598;-68
2023/10/17 01:03:13;;;;;;;;;4.25;1.75;;;;;8.97;54.40;100743.22;5121244;27;46534;-68
2023/10/17 01:08:44;;;;;;;;;32.00;27.25;;;;;8.98;54.29;100756.22;5116276;27;45348;-68
2023/10/17 01:11:15;;;;;;;;;12.00;7.00;;;;;8.97;54.25;100766.69;5112965;27;45435;-69
2023/10/17 01:13:40;;;;;;;;;4.25;3.00;;;;;8.94;54.36;100765.00;5097726;27;47295;-68
2023/10/17 01:16:07;;;;;;;;;4.00;3.00;;;;;8.92;54.80;100751.13;5117928;27;54440;-66
2023/10/17 01:18:34;;;;;;;;;2.00;2.00;;;;;8.95;54.29;100761.50;5115247;27;45445;-68
2023/10/17 01:20:59;;;;;;;;;6.00;4.00;;;;;8.92;54.57;100753.72;5117073;27;45357;-67
2023/10/17 01:23:26;;;;;;;;;3.00;3.00;;;;;8.92;54.86;100748.50;5121352;27;45308;-67
2023/10/17 01:25:52;;;;;;;;;6.50;3.25;;;;;8.89;54.38;100751.22;5102293;27;46028;-68
2023/10/17 01:28:17;;;;;;;;;9.75;9.75;;;;;8.89;54.71;100741.63;5114612;27;48645;-68
2023/10/17 01:30:42;;;;;;;;;22.50;15.25;;;;;8.89;54.77;100741.63;5109981;27;45394;-67
2023/10/17 01:33:08;;;;;;;;;5.00;3.00;;;;;8.90;54.51;100735.50;5105413;27;70426;-68
2023/10/17 01:35:33;;;;;;;;;5.25;4.75;;;;;8.86;54.19;100733.84;5112036;27;45258;-67
2023/10/17 01:37:58;;;;;;;;;11.75;4.50;;;;;8.88;54.85;100745.09;5118443;27;59206;-68
2023/10/17 01:40:27;;;;;;;;;5.00;3.00;;;;;8.82;54.78;100741.75;5112198;27;47682;-68
2023/10/17 01:42:54;;;;;;;;;5.00;5.00;;;;;8.85;54.69;100750.41;5097047;27;48136;-68
2023/10/17 01:45:25;;;;;;;;;6.25;4.50;;;;;8.81;54.64;100759.16;5108060;27;45417;-67
2023/10/17 01:47:51;;;;;;;;;5.25;3.75;;;;;8.78;54.75;100742.72;5114769;27;45520;-68
2023/10/17 01:50:20;;;;;;;;;7.00;5.25;;;;;8.75;54.95;100751.47;5108322;27;45244;-68
2023/10/17 01:52:46;;;;;;;;;4.25;2.75;;;;;8.72;55.24;100751.53;5098095;27;47543;-68
2023/10/17 01:55:15;;;;;;;;;5.75;4.50;;;;;8.72;55.40;100752.38;5095206;27;45563;-67
2023/10/17 01:57:41;;;;;;;;;3.25;2.25;;;;;8.68;55.25;100757.69;5091902;27;45260;-68
2023/10/17 02:00:46;;;;;;;;;3.75;2.25;;;;;8.61;55.14;100758.69;5111166;27;45519;-67
2023/10/17 02:03:12;;;;;;;;;4.00;2.00;;;;;8.60;55.13;100773.47;5113145;27;47174;-68
2023/10/17 02:05:37;;;;;;;;;4.00;3.50;;;;;8.57;55.51;100768.34;5112534;27;45415;-68
2023/10/17 02:08:03;;;;;;;;;3.75;1.25;;;;;8.51;55.46;100760.59;5110575;27;45509;-67
2023/10/17 02:10:28;;;;;;;;;4.00;2.00;;;;;8.47;55.34;100756.34;5101403;27;45532;-68
2023/10/17 02:12:54;;;;;;;;;6.00;2.75;;;;;8.47;55.63;100761.56;5099458;27;46986;-68
2023/10/17 02:15:20;;;;;;;;;2.00;2.00;;;;;8.39;55.78;100759.03;5110502;27;45475;-68
2023/10/17 02:17:47;;;;;;;;;2.50;2.00;;;;;8.39;55.70;100761.63;5098575;27;45573;-68
2023/10/17 02:20:21;;;;;;;;;2.75;2.75;;;;;8.40;55.66;100760.75;5112931;27;46664;-68
2023/10/17 02:22:49;;;;;;;;;2.25;2.00;;;;;8.36;55.91;100754.75;5116050;27;46476;-68
2023/10/17 02:25:16;;;;;;;;;2.25;2.25;;;;;8.37;56.30;100758.19;5110867;27;45828;-68
2023/10/17 02:27:44;;;;;;;;;4.00;2.00;;;;;8.36;55.81;100759.09;5108326;27;45233;-68
2023/10/17 02:30:14;;;;;;;;;4.00;3.25;;;;;8.29;55.85;100747.91;5108538;27;45372;-68
2023/10/17 02:32:44;;;;;;;;;2.00;2.00;;;;;8.26;56.15;100757.53;5116480;27;46116;-68
2023/10/17 02:35:14;;;;;;;;;4.25;2.50;;;;;8.27;56.44;100751.41;5108267;27;46089;-68
2023/10/17 02:37:43;;;;;;;;;3.00;3.00;;;;;8.26;56.30;100749.72;5113399;27;45480;-68
2023/10/17 02:40:16;;;;;;;;;2.50;2.50;;;;;8.26;56.52;100750.56;5102055;27;45453;-68
2023/10/17 02:42:42;;;;;;;;;4.00;2.25;;;;;8.29;56.20;100755.72;5100176;27;47031;-68
2023/10/17 02:45:07;;;;;;;;;4.00;2.00;;;;;8.22;56.49;100735.88;5115666;27;57587;-68
2023/10/17 02:47:34;;;;;;;;;2.50;2.50;;;;;8.26;56.76;100752.31;5131907;27;45318;-67
2023/10/17 02:50:01;;;;;;;;;3.00;3.00;;;;;8.27;56.70;100751.41;5119874;27;45258;-68
2023/10/17 02:52:26;;;;;;;;;6.25;3.25;;;;;8.27;56.39;100748.81;5112689;27;46332;-68
2023/10/17 02:55:00;;;;;;;;;2.00;1.00;;;;;8.24;56.98;100746.28;5121641;27;58724;-68
2023/10/17 02:57:27;;;;;;;;;4.00;2.00;;;;;8.25;56.47;100745.38;5112245;27;45376;-68
2023/10/17 02:59:52;;;;;;;;;4.75;3.00;;;;;8.27;56.86;100751.41;5116629;27;45571;-68
2023/10/17 03:02:21;;;;;;;;;7.25;2.00;;;;;8.24;56.53;100741.06;5119417;27;46914;-68
2023/10/17 03:04:46;;;;;;;;;2.75;2.00;;;;;8.24;56.61;100734.09;5119707;27;45909;-68
2023/10/17 03:07:12;;;;;;;;;3.25;2.00;;;;;8.21;56.44;100741.97;5121067;27;55685;-68
2023/10/17 03:09:39;;;;;;;;;2.00;2.00;;;;;8.20;56.62;100741.97;5099318;27;45411;-68
2023/10/17 03:17:11;;;;;;;;;3.00;3.00;;;;;8.08;56.93;100727.44;5106296;27;45306;-68
2023/10/17 03:19:38;;;;;;;;;5.25;3.00;;;;;8.06;56.73;100731.81;5109608;27;45386;-68
2023/10/17 03:22:18;;;;;;;;;6.00;2.00;;;;;8.02;57.10;100727.53;5098139;27;47017;-68
2023/10/17 03:24:44;;;;;;;;;2.50;2.00;;;;;7.99;57.18;100728.44;5104264;27;46046;-68
2023/10/17 03:27:55;;;;;;;;;3.25;3.00;;;;;7.97;57.79;100735.44;5105082;27;45258;-68
2023/10/17 03:30:03;;;;;;;;;4.00;3.25;;;;;7.95;57.57;100722.41;5104905;27;45465;-68
2023/10/17 03:32:31;;;;;;;;;4.25;3.75;;;;;7.91;57.22;100717.28;5118266;27;48042;-68
2023/10/17 03:34:56;;;;;;;;;3.00;3.00;;;;;7.94;57.66;100727.66;5120656;27;45456;-68
2023/10/17 03:42:55;;;;;;;;;3.00;2.25;;;;;7.85;57.49;100727.81;5085857;27;45682;-68
2023/10/17 03:47:49;;;;;;;;;5.00;3.25;;;;;7.75;57.97;100722.72;5121148;27;45361;-68
2023/10/17 03:50:31;;;;;;;;;5.75;3.75;;;;;7.74;57.76;100723.63;5115991;27;45476;-68
2023/10/17 03:52:57;;;;;;;;;8.50;3.50;;;;;7.75;57.80;100727.94;5118678;27;45522;-68
2023/10/17 03:55:22;;;;;;;;;6.25;4.00;;;;;7.75;58.39;100733.13;5109447;27;45495;-68
2023/10/17 03:57:52;;;;;;;;;2.00;2.00;;;;;7.74;58.14;100734.03;5102541;27;65021;-68
2023/10/17 04:00:40;;;;;;;;;4.00;3.50;;;;;7.76;58.18;100723.59;5100794;27;46155;-68
2023/10/17 04:03:09;;;;;;;;;5.50;3.00;;;;;7.76;58.03;100724.44;5118141;27;47275;-68
2023/10/17 04:05:36;;;;;;;;;3.00;2.00;;;;;7.75;58.25;100722.72;5102456;27;45971;-68
2023/10/17 04:08:02;;;;;;;;;1.75;1.75;;;;;7.74;58.43;100725.38;5117189;27;45504;-67
2023/10/17 04:10:49;;;;;;;;;4.00;1.75;;;;;7.73;58.46;100727.09;5121124;27;45157;-67
2023/10/17 04:13:24;;;;;;;;;4.25;2.00;;;;;7.76;58.75;100737.47;5113825;27;45440;-67
2023/10/17 04:15:49;;;;;;;;;3.50;3.50;;;;;7.77;58.53;100727.91;5093548;27;45914;-67
2023/10/17 04:18:15;;;;;;;;;4.25;3.50;;;;;7.82;58.79;100722.63;5120365;27;45520;-67
2023/10/17 04:20:44;;;;;;;;;5.25;3.00;;;;;7.87;58.78;100723.44;5108199;27;57874;-67
2023/10/17 04:23:21;;;;;;;;;4.00;3.00;;;;;7.88;58.39;100713.00;5120775;27;45407;-68
2023/10/17 04:25:54;;;;;;;;;5.75;3.00;;;;;7.92;58.76;100721.63;5112122;27;45220;-67
2023/10/17 04:28:19;;;;;;;;;4.25;3.00;;;;;7.94;58.63;100725.06;5115647;27;45258;-68
2023/10/17 04:30:47;;;;;;;;;3.00;3.00;;;;;7.97;58.44;100728.47;5103573;27;45559;-67
2023/10/17 04:33:13;;;;;;;;;5.00;3.00;;;;;7.98;58.65;100731.91;5111142;27;45722;-67
2023/10/17 04:35:48;;;;;;;;;6.00;4.00;;;;;7.96;58.20;100726.72;5105028;27;45834;-67
2023/10/17 04:38:26;;;;;;;;;4.25;3.75;;;;;7.94;57.87;100725.91;5097137;27;45562;-67
2023/10/17 04:41:11;;;;;;;;;5.00;5.00;;;;;7.92;58.30;100732.03;5098659;27;46243;-67
2023/10/17 04:43:54;;;;;;;;;7.50;5.00;;;;;7.93;58.39;100738.94;5118723;27;45472;-67
2023/10/17 04:46:25;;;;;;;;;5.25;4.00;;;;;7.91;58.21;100730.31;5118647;27;45881;-67
2023/10/17 04:48:52;;;;;;;;;8.25;5.00;;;;;7.85;58.25;100726.06;5112301;27;45473;-67
2023/10/17 04:53:50;;;;;;;;;8.75;7.00;;;;;7.74;58.46;100714.97;5106587;27;45780;-69
2023/10/17 04:56:17;;;;;;;;;10.25;5.00;;;;;7.67;58.67;100708.97;5096545;27;45348;-66
2023/10/17 06:18:16;;;;;;;;;5.75;5.00;;;;;7.54;60.39;100739.56;5097528;27;45579;-67
2023/10/17 06:30:05;;;;;;;;;5.50;4.75;;;;;7.65;59.76;100731.59;5117237;27;45524;-67
2023/10/17 06:31:55;;;;;;;;;8.50;4.25;;;;;7.58;59.73;100723.00;5116641;27;45703;-67
2023/10/17 06:34:22;;;;;;;;;11.00;4.00;;;;;7.62;59.88;100717.75;5109006;27;45890;-67
2023/10/17 06:36:59;;;;;;;;;5.00;5.00;;;;;7.60;59.54;100720.38;5115552;27;45535;-68
2023/10/17 06:39:27;;;;;;;;;13.75;6.25;;;;;7.53;59.80;100721.34;5104677;27;45531;-69
2023/10/17 06:41:55;;;;;;;;;8.75;5.75;;;;;7.58;59.85;100735.16;5102328;27;47899;-68
2023/10/17 06:44:23;;;;;;;;;5.50;5.50;;;;;7.54;60.06;100721.31;5100243;27;45584;-68
2023/10/17 06:46:55;;;;;;;;;5.00;5.00;;;;;7.58;59.60;100727.34;5131207;27;45396;-67
2023/10/17 06:54:49;;;;;;;;;44.00;35.00;;;;;7.67;60.22;100734.16;5116338;27;45530;-68
2023/10/17 06:57:23;;;;;;;;;9.50;9.25;;;;;7.67;60.25;100722.00;5102463;27;45338;-68
2023/10/17 06:59:52;;;;;;;;;8.00;5.00;;;;;7.74;60.08;100733.19;5101694;27;45374;-68
2023/10/17 07:02:28;;;;;;;;;7.25;5.25;;;;;7.77;59.87;100728.78;5118188;27;45609;-70
2023/10/17 07:04:55;;;;;;;;;9.25;6.25;;;;;7.78;59.93;100733.09;5104929;27;46052;-69
2023/10/17 07:07:22;;;;;;;;;7.50;5.25;;;;;7.74;59.54;100734.03;5116766;27;45529;-65
2023/10/17 07:09:52;;;;;;;;;8.25;5.00;;;;;7.72;59.73;100737.53;5114043;27;45370;-67
2023/10/17 07:12:20;;;;;;;;;9.50;4.50;;;;;7.71;59.94;100723.66;5119083;27;46566;-66
2023/10/17 07:14:51;;;;;;;;;9.25;5.00;;;;;7.73;59.91;100724.50;5120595;27;45954;-67
2023/10/17 07:17:25;;;;;;;;;6.25;4.00;;;;;7.79;59.66;100718.31;5129039;27;45349;-67
2023/10/17 07:19:58;;;;;;;;;6.25;4.75;;;;;7.80;59.73;100723.50;5117074;27;45591;-69
2023/10/17 07:22:24;;;;;;;;;9.50;8.00;;;;;7.82;59.63;100728.69;5118415;27;45590;-66
2023/10/17 07:24:50;;;;;;;;;10.50;5.00;;;;;7.85;59.40;100733.03;5116619;27;45302;-67
2023/10/17 07:27:19;;;;;;;;;5.75;5.75;;;;;7.90;59.47;100739.88;5121901;27;45430;-66
2023/10/17 07:29:45;;;;;;;;;8.50;6.50;;;;;7.92;59.49;100730.28;5098230;27;45437;-66
2023/10/17 07:32:17;;;;;;;;;5.00;5.00;;;;;7.96;59.49;100729.34;5119114;27;46458;-66
2023/10/17 07:34:46;;;;;;;;;10.00;6.50;;;;;7.97;59.43;100725.00;5118714;27;46036;-66
2023/10/17 07:39:37;;;;;;;;;10.75;7.50;;;;;8.11;59.66;100728.25;5120302;27;45663;-66
2023/10/17 07:42:04;;;;;;;;;10.50;6.25;;;;;8.15;59.31;100726.44;5114723;27;45628;-65
2023/10/17 07:44:34;;;;;;;;;6.75;6.00;;;;;8.21;59.31;100728.06;5121753;27;45442;-68
2023/10/17 07:47:19;;;;;;;;;9.25;5.00;;;;;8.28;59.23;100727.94;5101848;27;45304;-68
2023/10/17 07:49:47;;;;;;;;;8.50;7.00;;;;;8.33;59.15;100723.50;5139803;27;45261;-65
2023/10/17 07:52:15;;;;;;;;;10.25;6.00;;;;;8.40;58.92;100729.47;5120278;27;45420;-66
2023/10/17 07:54:57;;;;;;;;;12.75;6.25;;;;;8.41;58.85;100725.09;5124177;27;45984;-66
2023/10/17 07:57:27;;;;;;;;;5.75;5.00;;;;;8.45;58.89;100725.06;5141853;27;45324;-68
2023/10/17 07:59:57;;;;;;;;;10.00;9.75;;;;;8.50;58.85;100722.38;5094887;27;45401;-68
2023/10/17 08:02:23;;;;;;;;;6.00;6.00;;;;;8.54;58.85;100718.81;5114908;27;45602;-67
2023/10/17 08:04:50;;;;;;;;;13.50;8.00;;;;;8.62;58.74;100727.34;5098192;27;46059;-67
2023/10/17 08:07:19;;;;;;;;;9.25;8.25;;;;;8.68;58.81;100729.00;5110991;27;45533;-66
2023/10/17 08:09:56;;;;;;;;;9.00;6.00;;;;;8.71;58.63;100727.19;5093486;27;45409;-65
2023/10/17 08:12:23;;;;;;;;;9.50;9.50;;;;;8.80;58.65;100720.06;5117093;27;45621;-67
2023/10/17 08:15:36;;;;;;;;;6.50;6.00;;;;;8.83;58.53;100723.47;5103702;27;45687;-67
2023/10/17 08:17:41;;;;;;;;;10.50;8.75;;;;;8.89;58.23;100725.09;5108375;27;45515;-67
2023/10/17 08:25:25;;;;;;;;;8.50;7.25;;;;;9.06;58.31;100722.97;5120568;27;45253;-66
2023/10/17 08:27:53;;;;;;;;;11.25;5.00;;;;;9.11;58.09;100710.69;5118993;27;45220;-68
2023/10/17 08:30:23;;;;;;;;;11.25;8.00;;;;;9.18;57.92;100715.81;5101278;27;45619;-66
2023/10/17 08:33:09;;;;;;;;;10.75;7.00;;;;;9.23;58.02;100716.56;5103047;27;46265;-68
2023/10/17 08:35:39;;;;;;;;;11.25;8.50;;;;;9.31;58.16;100714.63;5099707;27;45520;-67
2023/10/17 08:38:06;;;;;;;;;15.25;12.00;;;;;9.41;58.00;100723.13;5102050;27;45332;-68
2023/10/17 08:40:32;;;;;;;;;13.75;9.75;;;;;9.50;57.99;100718.53;5113228;27;45631;-69
2023/10/17 08:43:20;;;;;;;;;11.75;9.75;;;;;9.62;57.50;100716.56;5117562;27;45497;-68
2023/10/17 08:45:47;;;;;;;;;13.25;10.00;;;;;9.69;57.55;100703.31;5105119;27;45279;-67
2023/10/17 08:48:13;;;;;;;;;11.50;8.25;;;;;9.80;57.22;100713.50;5096588;27;45493;-69
2023/10/17 08:50:43;;;;;;;;;9.50;7.75;;;;;9.86;57.40;100694.19;5114167;27;45410;-68
2023/10/17 08:53:13;;;;;;;;;12.50;6.25;;;;;9.94;57.11;100694.88;5100768;27;47208;-67
2023/10/17 08:55:40;;;;;;;;;8.25;7.00;;;;;10.04;56.95;100701.59;5124350;27;45487;-68
2023/10/17 08:58:06;;;;;;;;;8.50;8.50;;;;;10.10;56.61;100695.34;5100580;27;45434;-67
2023/10/17 09:00:49;;;;;;;;;9.25;8.00;;;;;10.16;56.58;100691.69;5110441;27;45311;-69
2023/10/17 09:03:36;;;;;;;;;11.50;9.00;;;;;10.26;56.65;100691.41;5102983;27;47251;-68
2023/10/17 09:09:17;;;;;;;;;9.25;8.00;;;;;10.48;56.71;100696.09;5087710;27;45495;-67
2023/10/17 09:12:01;;;;;;;;;11.75;7.50;;;;;10.56;56.16;100701.16;5123635;27;45491;-67
2023/10/17 09:14:29;;;;;;;;;7.50;6.50;;;;;10.58;55.99;100691.50;5120277;27;45400;-68
2023/10/17 09:17:11;;;;;;;;;13.50;8.25;;;;;10.63;55.99;100690.44;5119227;27;45298;-68
2023/10/17 09:19:46;;;;;;;;;10.25;6.50;;;;;10.72;55.93;100686.72;5102577;27;45373;-67
2023/10/17 09:22:16;;;;;;;;;8.75;8.00;;;;;10.79;56.25;100679.56;5115452;27;45339;-68
2023/10/17 09:24:45;;;;;;;;;9.50;8.00;;;;;10.84;56.05;100682.91;5118348;27;45869;-68
2023/10/17 09:27:14;;;;;;;;;12.75;9.00;;;;;10.89;55.87;100681.00;5110629;27;45357;-68
2023/10/17 09:29:46;;;;;;;;;9.75;7.00;;;;;10.96;55.64;100685.16;5114505;27;45386;-68
2023/10/17 09:32:11;;;;;;;;;24.50;15.75;;;;;11.03;55.35;100680.63;5105323;27;45477;-69
2023/10/17 09:34:38;;;;;;;;;15.00;11.25;;;;;11.09;55.56;100685.66;5115118;27;46275;-67
2023/10/17 09:37:05;;;;;;;;;34.75;25.00;;;;;11.16;55.23;100689.81;5118872;27;45905;-67
2023/10/17 09:39:34;;;;;;;;;10.00;8.75;;;;;11.25;55.13;100690.44;5107000;27;45213;-67
2023/10/17 09:41:59;;;;;;;;;10.50;7.75;;;;;11.32;55.12;100689.34;5098959;27;45510;-67
2023/10/17 09:44:25;;;;;;;;;12.00;9.00;;;;;11.41;54.96;100683.81;5114195;27;46302;-67
2023/10/17 09:47:01;;;;;;;;;12.75;7.50;;;;;11.52;54.87;100680.84;5109802;27;65251;-68
2023/10/17 09:49:45;;;;;;;;;14.25;9.00;;;;;11.65;55.16;100673.44;5101924;27;45310;-68
2023/10/17 09:52:14;;;;;;;;;12.00;6.75;;;;;11.75;54.66;100680.94;5082173;27;45470;-68
2023/10/17 09:54:41;;;;;;;;;17.00;8.25;;;;;11.80;54.13;100679.97;5107079;27;45390;-68
2023/10/17 09:57:14;;;;;;;;;16.00;10.00;;;;;11.86;54.56;100683.22;5110974;27;46040;-68
2023/10/17 09:59:44;;;;;;;;;10.25;9.00;;;;;11.95;54.11;100687.34;5115601;27;45464;-68
2023/10/17 10:02:11;;;;;;;;;10.50;9.75;;;;;12.05;53.89;100683.50;5106385;27;45452;-68
2023/10/17 10:04:38;;;;;;;;;9.50;9.50;;;;;12.12;53.96;100679.75;5110352;27;46225;-65
2023/10/17 10:07:23;;;;;;;;;7.75;7.50;;;;;12.25;53.59;100674.09;5113084;27;45313;-65
2023/10/17 10:09:49;;;;;;;;;12.50;10.25;;;;;12.32;53.59;100668.59;5113693;27;45459;-68
2023/10/17 10:12:15;;;;;;;;;9.25;7.75;;;;;12.40;53.59;100670.09;5121526;27;45485;-65
2023/10/17 10:14:44;;;;;;;;;9.75;9.25;;;;;12.49;53.48;100665.34;5088966;27;47200;-65
2023/10/17 10:17:11;;;;;;;;;14.50;8.50;;;;;12.60;53.52;100671.97;5115925;27;45913;-66
2023/10/17 10:19:50;;;;;;;;;10.50;9.75;;;;;12.69;53.03;100667.22;5108821;27;45493;-65
2023/10/17 10:22:16;;;;;;;;;8.75;6.50;;;;;12.80;53.23;100671.22;5107460;27;45495;-65
2023/10/17 10:24:45;;;;;;;;;11.25;7.00;;;;;12.89;53.03;100670.88;5094906;27;46052;-65
2023/10/17 10:27:19;;;;;;;;;7.75;7.50;;;;;12.96;52.83;100666.25;5092194;27;45476;-66
2023/10/17 10:29:52;;;;;;;;;13.00;9.50;;;;;13.05;52.74;100660.66;5113551;27;45716;-66
2023/10/17 10:32:40;;;;;;;;;8.00;7.00;;;;;13.09;51.84;100667.53;5111785;27;45376;-66
2023/10/17 10:35:06;;;;;;;;;11.00;8.75;;;;;13.12;52.39;100651.66;5114235;27;46941;-65
2023/10/17 10:37:53;;;;;;;;;13.00;9.00;;;;;13.20;52.44;100646.06;5115426;27;45440;-66
2023/10/17 10:40:26;;;;;;;;;13.25;9.50;;;;;13.29;52.45;100643.09;5112360;27;45362;-66
2023/10/17 10:42:57;;;;;;;;;8.75;7.25;;;;;13.35;51.77;100660.41;5091594;27;45290;-66
2023/10/17 10:45:40;;;;;;;;;9.00;9.00;;;;;13.41;51.91;100649.66;5108672;27;45402;-66
2023/10/17 10:48:15;;;;;;;;;8.50;7.75;;;;;13.45;52.05;100640.72;5098068;27;45788;-65
2023/10/17 10:50:46;;;;;;;;;10.00;8.00;;;;;13.54;51.68;100637.72;5097792;27;45351;-66
2023/10/17 10:53:28;;;;;;;;;9.50;8.50;;;;;13.59;51.55;100632.28;5122190;27;45326;-66
2023/10/17 10:55:55;;;;;;;;;10.25;8.50;;;;;13.68;51.73;100640.63;5106694;27;45404;-67
2023/10/17 10:58:22;;;;;;;;;17.50;17.00;;;;;13.78;52.15;100645.53;5101268;27;45377;-68
2023/10/17 11:00:48;;;;;;;;;18.25;14.75;;;;;13.90;52.05;100631.88;5106809;27;45339;-68
2023/10/17 11:03:13;;;;;;;;;7.00;7.00;;;;;14.01;51.07;100634.88;5100344;27;45541;-67
2023/10/17 11:05:59;;;;;;;;;17.00;14.25;;;;;14.05;50.96;100632.97;5097444;27;47048;-67
2023/10/17 11:08:25;;;;;;;;;20.00;18.00;;;;;14.05;50.74;100633.81;5111262;27;45734;-68
2023/10/17 11:10:51;;;;;;;;;11.75;10.50;;;;;14.01;50.71;100623.50;5103313;27;45608;-68
2023/10/17 11:13:16;;;;;;;;;17.00;10.25;;;;;14.04;50.73;100634.75;5115883;27;45607;-68
2023/10/17 11:15:45;;;;;;;;;16.25;12.00;;;;;14.05;50.37;100633.81;5125363;27;53979;-66
2023/10/17 11:18:11;;;;;;;;;13.00;10.25;;;;;14.07;50.38;100632.91;5117060;27;45740;-66
2023/10/17 11:20:40;;;;;;;;;14.25;11.75;;;;;14.07;50.42;100623.22;5106221;27;45342;-67
2023/10/17 11:23:13;;;;;;;;;11.50;10.00;;;;;14.11;50.87;100618.69;5121258;27;45497;-67
2023/10/17 11:25:44;;;;;;;;;13.00;10.00;;;;;14.13;50.72;100619.47;5117879;27;47589;-67
2023/10/17 11:28:09;;;;;;;;;11.25;9.00;;;;;14.18;50.83;100612.22;5112614;27;45966;-66
2023/10/17 11:30:40;;;;;;;;;9.00;7.50;;;;;14.23;50.67;100612.88;5105658;27;45558;-69
2023/10/17 11:33:14;;;;;;;;;8.50;7.75;;;;;14.31;51.08;100609.94;5098721;27;45583;-69
2023/10/17 11:35:50;;;;;;;;;12.75;9.25;;;;;14.36;50.47;100605.28;5104100;27;47099;-69
2023/10/17 11:38:28;;;;;;;;;11.50;9.25;;;;;14.43;50.21;100593.59;5109626;27;45275;-68
2023/10/17 11:40:59;;;;;;;;;8.50;7.75;;;;;14.43;50.62;100593.59;5108471;27;45437;-70
2023/10/17 11:43:28;;;;;;;;;15.00;10.75;;;;;14.50;50.18;100583.59;5099714;27;46240;-69
2023/10/17 11:45:54;;;;;;;;;5.00;3.25;;;;;14.52;50.38;100582.63;5119694;27;45554;-69
2023/10/17 11:48:26;;;;;;;;;11.50;10.00;;;;;14.56;50.49;100580.72;5088638;27;45980;-68
2023/10/17 11:51:07;;;;;;;;;15.25;9.75;;;;;14.61;50.40;100576.13;5112146;27;45368;-69
2023/10/17 11:53:32;;;;;;;;;10.00;7.25;;;;;14.67;50.49;100575.81;5092847;27;45349;-70
2023/10/17 11:55:58;;;;;;;;;8.25;7.75;;;;;14.65;50.38;100564.50;5127813;27;47984;-69
2023/10/17 11:58:29;;;;;;;;;10.50;7.00;;;;;14.73;50.07;100561.50;5095958;27;45446;-68
2023/10/17 12:00:54;;;;;;;;;7.50;6.50;;;;;14.76;50.29;100558.72;5119974;27;45407;-68
2023/10/17 12:03:20;;;;;;;;;8.75;7.75;;;;;14.85;50.27;100560.06;5114850;27;45483;-73
2023/10/17 12:05:49;;;;;;;;;10.00;9.25;;;;;14.93;50.45;100553.50;5117829;27;46056;-70
2023/10/17 12:08:21;;;;;;;;;10.50;8.00;;;;;14.99;49.99;100549.72;5115441;27;45223;-68
2023/10/17 12:10:51;;;;;;;;;9.50;8.00;;;;;15.09;50.33;100547.50;5117038;27;45433;-68
2023/10/17 12:13:19;;;;;;;;;10.00;9.00;;;;;15.14;49.96;100543.72;5113686;27;45323;-72
2023/10/17 12:15:45;;;;;;;;;9.75;7.75;;;;;15.25;50.23;100537.06;5099435;27;46758;-70
2023/10/17 12:18:12;;;;;;;;;9.25;9.00;;;;;15.30;50.25;100533.25;5094627;27;45428;-70
2023/10/17 12:20:49;;;;;;;;;7.75;7.75;;;;;15.35;49.65;100528.63;5119025;27;45340;-72
2023/10/17 12:23:14;;;;;;;;;11.00;8.25;;;;;15.45;49.69;100536.06;5113871;27;45386;-69
2023/10/17 12:25:43;;;;;;;;;8.50;8.00;;;;;15.51;49.91;100528.69;5099841;27;47800;-71
2023/10/17 12:28:08;;;;;;;;;9.00;7.00;;;;;15.64;49.69;100520.16;5118554;27;45439;-70
2023/10/17 12:30:38;;;;;;;;;10.50;7.25;;;;;15.69;49.55;100518.13;5117560;27;45569;-69
2023/10/17 12:33:05;;;;;;;;;5.75;4.25;;;;;15.79;49.61;100514.09;5115991;27;45495;-69
2023/10/17 12:35:30;;;;;;;;;15.50;9.00;;;;;15.84;49.91;100514.72;5103619;27;46408;-70
2023/10/17 12:37:59;;;;;;;;;7.50;6.75;;;;;15.89;49.75;100503.91;5102540;27;45329;-68
2023/10/17 12:40:26;;;;;;;;;11.00;7.00;;;;;15.99;49.71;100504.28;5113309;27;45499;-69
2023/10/17 12:42:52;;;;;;;;;8.25;5.50;;;;;16.04;49.42;100497.84;5103209;27;45702;-71
2023/10/17 12:45:19;;;;;;;;;9.25;8.00;;;;;16.12;49.48;100500.91;5115071;27;45375;-69
2023/10/17 12:47:45;;;;;;;;;8.25;8.00;;;;;16.24;49.34;100501.19;5119418;27;45686;-68
2023/10/17 12:50:18;;;;;;;;;10.75;8.00;;;;;16.31;49.28;100490.19;5108800;27;45484;-68
2023/10/17 12:52:43;;;;;;;;;9.75;7.00;;;;;16.39;49.20;100487.13;5107293;27;45466;-68
2023/10/17 12:55:11;;;;;;;;;9.25;7.75;;;;;16.41;49.44;100487.88;5114613;27;46124;-69
2023/10/17 12:57:38;;;;;;;;;6.00;6.00;;;;;16.47;48.86;100481.44;5118123;27;45382;-69
2023/10/17 13:00:09;;;;;;;;;7.50;5.25;;;;;16.50;49.01;100479.47;5115183;27;45378;-71
2023/10/17 13:02:38;;;;;;;;;7.75;5.50;;;;;16.57;49.21;100479.97;5111401;27;45250;-71
2023/10/17 13:05:06;;;;;;;;;11.00;7.75;;;;;16.61;48.87;100478.00;5121630;27;45285;-72
2023/10/17 13:07:31;;;;;;;;;6.75;5.75;;;;;16.68;48.96;100476.75;5114963;27;45942;-70
2023/10/17 13:09:57;;;;;;;;;6.50;6.50;;;;;16.73;48.90;100476.47;5109733;27;45476;-69
2023/10/17 13:12:22;;;;;;;;;7.50;6.00;;;;;16.76;48.87;100471.00;5113275;27;45515;-70
2023/10/17 13:14:50;;;;;;;;;6.25;5.50;;;;;16.78;49.00;100467.31;5095661;27;47358;-69
2023/10/17 13:17:18;;;;;;;;;7.75;5.75;;;;;16.79;48.55;100465.56;5119804;27;45683;-70
2023/10/17 13:19:45;;;;;;;;;7.25;6.25;;;;;16.85;48.57;100465.22;5119980;27;45290;-71
2023/10/17 13:22:14;;;;;;;;;8.50;5.50;;;;;16.87;48.66;100455.41;5111601;27;45540;-71
2023/10/17 13:24:40;;;;;;;;;8.75;7.25;;;;;16.91;48.69;100462.25;5095278;27;47350;-69
2023/10/17 13:27:05;;;;;;;;;6.75;6.75;;;;;16.91;48.76;100449.03;5110232;27;45308;-69
2023/10/17 13:29:31;;;;;;;;;9.50;7.00;;;;;16.96;48.72;100452.22;5102200;27;65325;-71
2023/10/17 13:31:57;;;;;;;;;9.00;6.00;;;;;16.97;48.29;100439.88;5113043;27;45498;-70
2023/10/17 13:34:24;;;;;;;;;7.00;5.25;;;;;16.99;48.58;100440.63;5114365;27;45405;-70
2023/10/17 13:36:50;;;;;;;;;10.00;7.75;;;;;17.01;48.42;100429.00;5114727;27;45362;-70
2023/10/17 13:39:15;;;;;;;;;7.25;6.75;;;;;17.05;48.57;100438.50;5106605;27;55534;-71
2023/10/17 13:41:40;;;;;;;;;9.00;7.25;;;;;17.08;48.30;100443.56;5112415;27;56163;-70